Hovedside
METAR-TAF:

METAR-TAF

Lufthavner :

Mosjøen, Norge

Mosjøen lufthavn

breddegrad: 65-48N, lengdegrad: 013-08E, høyde over havet: 70 m

Gjeldene værobservasjon

Denne rapporten ble laget for 26 minutter siden, klokken 20:20 UTC
Vind 3 kt fra skiftende retning
Temperatur 3°C
Luftfuktighet 81%
Trykk 1015 hPa
Sikt 10 km eller mer
Spredte skyer i en høyde av 2100 ft
Brutte skyer i en høyde av 3500 ft
regnbyger i nærheten

METAR: ENMS 262020Z VRB03KT 9999 VCSH SCT021 BKN035 03/00 Q1015 RMK WIND 412FT VRB05KT

Tid: 22:46 (20:46 UTC)


TAF: fraværende

Værobservasjoner og værvarsel for over 4000 flyplasser (METAR- og TAF-rapporter).

Tilgjengelige stasjoner er representert av de røde og gule prikkene på kartet.

Hold musepekeren over prikken for å se navnet på stasjonen.

Klikk så for å se værobservasjoner og -varsler.

For å forandre kartet kan du klikke på den grønne knappen med svart kryss for å zoome inn, på den grønne knappen med strek for å zoome ut, eller på de grønne pilene for å se tilstøtende kart.


METAR-TAF: